TLPC/SLU METAR and TAF weather

Enter ICAO airport designator
Station Type Date Time Source
TLPC METAR 2019/11/15 02:00 UTC NOAA

TLPC 150200Z 09005KT 9999 FEW024 27/24 Q1013 NOSIG


Station Type Date Time Source
TLPC Decoded METAR 2019/11/15 02:00 UTC NOAA

Vigie, Saint Lucia (TLPC) 14-01N 061-00W 2M
Nov 14, 2019 - 09:00 PM EST / 2019.11.15 0200 UTC
Wind: from the E (090 degrees) at 6 MPH (5 KT):0
Visibility: greater than 7 mile(s):0
Sky conditions: mostly clear
Temperature: 80 F (27 C)
Dew Point: 75 F (24 C)
Relative Humidity: 83%
Pressure (altimeter): 29.91 in. Hg (1013 hPa)
ob: TLPC 150200Z 09005KT 9999 FEW024 27/24 Q1013 NOSIG
cycle: 2

Station Type Date Time Source
TLPC TAF 2019/11/15 06:06 UTC NOAA

TAF TAF TLPC 150502Z 1506/1606 08005KT 9999 SCT024
TEMPO 1506/1512 SHRA

Example: see airport list